sensor_id;sensor_type;location;lat;lon;timestamp;P1;durP1;ratioP1;P2;durP2;ratioP2
64467;SDS011;50853;46.836;16.820;2024-03-02T00:00:50;15.50;;;11.77;;
64467;SDS011;50853;46.836;16.820;2024-03-02T00:03:17;17.13;;;13.07;;
64467;SDS011;50853;46.836;16.820;2024-03-02T00:05:43;16.15;;;12.85;;
64467;SDS011;50853;46.836;16.820;2024-03-02T00:08:14;18.30;;;12.68;;
64467;SDS011;50853;46.836;16.820;2024-03-02T00:10:47;19.75;;;14.02;;
64467;SDS011;50853;46.836;16.820;2024-03-02T00:13:13;15.82;;;12.32;;
64467;SDS011;50853;46.836;16.820;2024-03-02T00:15:52;16.67;;;12.27;;
64467;SDS011;50853;46.836;16.820;2024-03-02T00:18:26;19.45;;;13.40;;
64467;SDS011;50853;46.836;16.820;2024-03-02T00:20:53;16.65;;;12.20;;
64467;SDS011;50853;46.836;16.820;2024-03-02T00:23:21;17.33;;;12.27;;
64467;SDS011;50853;46.836;16.820;2024-03-02T00:25:48;19.40;;;12.93;;
64467;SDS011;50853;46.836;16.820;2024-03-02T00:28:25;20.17;;;14.20;;
64467;SDS011;50853;46.836;16.820;2024-03-02T00:31:03;17.67;;;12.82;;
64467;SDS011;50853;46.836;16.820;2024-03-02T00:33:31;17.90;;;12.60;;
64467;SDS011;50853;46.836;16.820;2024-03-02T00:36:03;20.65;;;13.32;;
64467;SDS011;50853;46.836;16.820;2024-03-02T00:38:30;17.25;;;12.68;;
64467;SDS011;50853;46.836;16.820;2024-03-02T00:41:40;18.33;;;13.60;;
64467;SDS011;50853;46.836;16.820;2024-03-02T00:44:04;17.33;;;11.93;;
64467;SDS011;50853;46.836;16.820;2024-03-02T00:46:40;20.05;;;12.55;;
64467;SDS011;50853;46.836;16.820;2024-03-02T00:49:23;17.02;;;12.77;;
64467;SDS011;50853;46.836;16.820;2024-03-02T00:51:51;19.08;;;14.20;;
64467;SDS011;50853;46.836;16.820;2024-03-02T00:54:22;18.45;;;13.30;;
64467;SDS011;50853;46.836;16.820;2024-03-02T00:56:52;18.90;;;12.57;;
64467;SDS011;50853;46.836;16.820;2024-03-02T00:59:20;18.02;;;13.45;;
64467;SDS011;50853;46.836;16.820;2024-03-02T01:01:48;18.90;;;13.40;;
64467;SDS011;50853;46.836;16.820;2024-03-02T01:04:14;18.88;;;13.60;;
64467;SDS011;50853;46.836;16.820;2024-03-02T01:06:42;21.38;;;13.80;;
64467;SDS011;50853;46.836;16.820;2024-03-02T01:09:08;16.88;;;13.00;;
64467;SDS011;50853;46.836;16.820;2024-03-02T01:11:34;16.95;;;13.55;;
64467;SDS011;50853;46.836;16.820;2024-03-02T01:14:00;17.58;;;12.93;;
64467;SDS011;50853;46.836;16.820;2024-03-02T01:16:26;17.65;;;13.43;;
64467;SDS011;50853;46.836;16.820;2024-03-02T01:18:51;17.27;;;12.73;;
64467;SDS011;50853;46.836;16.820;2024-03-02T01:21:17;18.02;;;13.40;;
64467;SDS011;50853;46.836;16.820;2024-03-02T01:23:43;17.83;;;13.05;;
64467;SDS011;50853;46.836;16.820;2024-03-02T01:26:09;18.60;;;13.23;;
64467;SDS011;50853;46.836;16.820;2024-03-02T01:28:35;18.63;;;14.20;;
64467;SDS011;50853;46.836;16.820;2024-03-02T01:31:01;18.92;;;14.20;;
64467;SDS011;50853;46.836;16.820;2024-03-02T01:33:29;18.88;;;13.85;;
64467;SDS011;50853;46.836;16.820;2024-03-02T01:35:55;19.20;;;14.13;;
64467;SDS011;50853;46.836;16.820;2024-03-02T01:38:21;19.55;;;13.73;;
64467;SDS011;50853;46.836;16.820;2024-03-02T01:40:47;18.42;;;12.95;;
64467;SDS011;50853;46.836;16.820;2024-03-02T01:43:12;18.20;;;13.43;;
64467;SDS011;50853;46.836;16.820;2024-03-02T01:45:38;18.48;;;14.07;;
64467;SDS011;50853;46.836;16.820;2024-03-02T01:48:05;17.23;;;12.80;;
64467;SDS011;50853;46.836;16.820;2024-03-02T01:50:32;19.23;;;13.32;;
64467;SDS011;50853;46.836;16.820;2024-03-02T01:52:59;21.42;;;13.98;;
64467;SDS011;50853;46.836;16.820;2024-03-02T01:57:54;17.50;;;13.15;;
64467;SDS011;50853;46.836;16.820;2024-03-02T02:00:20;19.48;;;12.63;;
64467;SDS011;50853;46.836;16.820;2024-03-02T02:02:50;16.88;;;12.68;;
64467;SDS011;50853;46.836;16.820;2024-03-02T02:05:16;18.65;;;13.93;;
64467;SDS011;50853;46.836;16.820;2024-03-02T02:07:41;17.33;;;12.57;;
64467;SDS011;50853;46.836;16.820;2024-03-02T02:10:08;18.80;;;13.93;;
64467;SDS011;50853;46.836;16.820;2024-03-02T02:12:37;20.08;;;14.10;;
64467;SDS011;50853;46.836;16.820;2024-03-02T02:15:03;19.55;;;14.00;;
64467;SDS011;50853;46.836;16.820;2024-03-02T02:17:46;20.33;;;14.32;;
64467;SDS011;50853;46.836;16.820;2024-03-02T02:20:12;18.75;;;14.60;;
64467;SDS011;50853;46.836;16.820;2024-03-02T02:22:37;17.75;;;13.65;;
64467;SDS011;50853;46.836;16.820;2024-03-02T02:25:03;19.50;;;14.10;;
64467;SDS011;50853;46.836;16.820;2024-03-02T02:27:29;20.75;;;13.52;;
64467;SDS011;50853;46.836;16.820;2024-03-02T02:29:55;17.58;;;13.27;;
64467;SDS011;50853;46.836;16.820;2024-03-02T02:32:21;16.88;;;13.10;;
64467;SDS011;50853;46.836;16.820;2024-03-02T02:34:51;17.15;;;13.15;;
64467;SDS011;50853;46.836;16.820;2024-03-02T02:37:17;17.15;;;13.45;;
64467;SDS011;50853;46.836;16.820;2024-03-02T02:39:43;18.92;;;13.48;;
64467;SDS011;50853;46.836;16.820;2024-03-02T02:42:11;21.05;;;14.43;;
64467;SDS011;50853;46.836;16.820;2024-03-02T02:44:37;17.52;;;13.88;;
64467;SDS011;50853;46.836;16.820;2024-03-02T02:47:03;18.58;;;14.30;;
64467;SDS011;50853;46.836;16.820;2024-03-02T02:49:29;17.77;;;13.73;;
64467;SDS011;50853;46.836;16.820;2024-03-02T02:51:56;20.17;;;13.55;;
64467;SDS011;50853;46.836;16.820;2024-03-02T02:54:22;18.08;;;13.88;;
64467;SDS011;50853;46.836;16.820;2024-03-02T02:56:48;19.55;;;13.52;;
64467;SDS011;50853;46.836;16.820;2024-03-02T02:59:14;17.90;;;13.55;;
64467;SDS011;50853;46.836;16.820;2024-03-02T03:01:39;19.52;;;13.95;;
64467;SDS011;50853;46.836;16.820;2024-03-02T03:04:05;18.30;;;13.35;;
64467;SDS011;50853;46.836;16.820;2024-03-02T03:06:31;20.02;;;14.35;;
64467;SDS011;50853;46.836;16.820;2024-03-02T03:08:57;17.73;;;13.65;;
64467;SDS011;50853;46.836;16.820;2024-03-02T03:11:22;18.35;;;13.00;;
64467;SDS011;50853;46.836;16.820;2024-03-02T03:16:15;18.80;;;13.65;;
64467;SDS011;50853;46.836;16.820;2024-03-02T03:18:41;18.00;;;13.25;;
64467;SDS011;50853;46.836;16.820;2024-03-02T03:21:07;18.92;;;13.98;;
64467;SDS011;50853;46.836;16.820;2024-03-02T03:23:33;18.55;;;13.23;;
64467;SDS011;50853;46.836;16.820;2024-03-02T03:25:58;19.45;;;14.40;;
64467;SDS011;50853;46.836;16.820;2024-03-02T03:28:24;20.42;;;14.63;;
64467;SDS011;50853;46.836;16.820;2024-03-02T03:30:50;20.08;;;14.75;;
64467;SDS011;50853;46.836;16.820;2024-03-02T03:33:16;19.90;;;14.38;;
64467;SDS011;50853;46.836;16.820;2024-03-02T03:35:41;18.70;;;14.10;;
64467;SDS011;50853;46.836;16.820;2024-03-02T03:38:07;18.85;;;14.45;;
64467;SDS011;50853;46.836;16.820;2024-03-02T03:40:33;19.38;;;13.25;;
64467;SDS011;50853;46.836;16.820;2024-03-02T03:42:59;18.80;;;13.73;;
64467;SDS011;50853;46.836;16.820;2024-03-02T03:45:25;19.52;;;13.95;;
64467;SDS011;50853;46.836;16.820;2024-03-02T03:47:52;20.63;;;14.43;;
64467;SDS011;50853;46.836;16.820;2024-03-02T03:50:18;19.55;;;13.40;;
64467;SDS011;50853;46.836;16.820;2024-03-02T03:52:45;20.42;;;14.60;;
64467;SDS011;50853;46.836;16.820;2024-03-02T03:55:10;19.52;;;14.27;;
64467;SDS011;50853;46.836;16.820;2024-03-02T03:57:36;20.50;;;13.73;;
64467;SDS011;50853;46.836;16.820;2024-03-02T04:00:03;18.95;;;14.85;;
64467;SDS011;50853;46.836;16.820;2024-03-02T04:02:29;22.73;;;14.45;;
64467;SDS011;50853;46.836;16.820;2024-03-02T04:04:55;18.02;;;14.35;;
64467;SDS011;50853;46.836;16.820;2024-03-02T04:07:20;20.55;;;14.38;;
64467;SDS011;50853;46.836;16.820;2024-03-02T04:09:46;19.20;;;14.20;;
64467;SDS011;50853;46.836;16.820;2024-03-02T04:12:12;20.80;;;14.27;;
64467;SDS011;50853;46.836;16.820;2024-03-02T04:14:38;20.60;;;14.52;;
64467;SDS011;50853;46.836;16.820;2024-03-02T04:17:04;20.67;;;14.55;;
64467;SDS011;50853;46.836;16.820;2024-03-02T04:19:30;20.17;;;14.88;;
64467;SDS011;50853;46.836;16.820;2024-03-02T04:21:56;19.50;;;14.02;;
64467;SDS011;50853;46.836;16.820;2024-03-02T04:24:21;18.75;;;13.75;;
64467;SDS011;50853;46.836;16.820;2024-03-02T04:26:47;18.20;;;14.02;;
64467;SDS011;50853;46.836;16.820;2024-03-02T04:29:13;18.80;;;13.82;;
64467;SDS011;50853;46.836;16.820;2024-03-02T04:31:39;19.70;;;14.10;;
64467;SDS011;50853;46.836;16.820;2024-03-02T04:34:04;20.20;;;13.93;;
64467;SDS011;50853;46.836;16.820;2024-03-02T04:36:30;16.25;;;12.50;;
64467;SDS011;50853;46.836;16.820;2024-03-02T04:38:56;18.77;;;13.43;;
64467;SDS011;50853;46.836;16.820;2024-03-02T04:41:22;20.45;;;14.35;;
64467;SDS011;50853;46.836;16.820;2024-03-02T04:43:47;18.77;;;13.55;;
64467;SDS011;50853;46.836;16.820;2024-03-02T04:46:13;17.90;;;13.15;;
64467;SDS011;50853;46.836;16.820;2024-03-02T04:48:40;18.30;;;13.13;;
64467;SDS011;50853;46.836;16.820;2024-03-02T04:51:05;19.42;;;13.60;;
64467;SDS011;50853;46.836;16.820;2024-03-02T04:53:31;19.48;;;13.75;;
64467;SDS011;50853;46.836;16.820;2024-03-02T04:55:57;22.50;;;14.90;;
64467;SDS011;50853;46.836;16.820;2024-03-02T04:58:48;16.70;;;12.43;;
64467;SDS011;50853;46.836;16.820;2024-03-02T05:01:14;21.67;;;14.10;;
64467;SDS011;50853;46.836;16.820;2024-03-02T05:03:42;18.65;;;13.88;;
64467;SDS011;50853;46.836;16.820;2024-03-02T05:06:08;18.50;;;12.82;;
64467;SDS011;50853;46.836;16.820;2024-03-02T05:08:34;18.40;;;14.02;;
64467;SDS011;50853;46.836;16.820;2024-03-02T05:10:59;18.98;;;13.02;;
64467;SDS011;50853;46.836;16.820;2024-03-02T05:13:45;20.42;;;14.55;;
64467;SDS011;50853;46.836;16.820;2024-03-02T05:16:11;18.27;;;13.95;;
64467;SDS011;50853;46.836;16.820;2024-03-02T05:18:37;19.48;;;13.88;;
64467;SDS011;50853;46.836;16.820;2024-03-02T05:21:03;18.00;;;13.13;;
64467;SDS011;50853;46.836;16.820;2024-03-02T05:23:29;17.95;;;13.48;;
64467;SDS011;50853;46.836;16.820;2024-03-02T05:25:59;22.50;;;14.82;;
64467;SDS011;50853;46.836;16.820;2024-03-02T05:28:24;17.27;;;12.95;;
64467;SDS011;50853;46.836;16.820;2024-03-02T05:30:50;20.95;;;14.15;;
64467;SDS011;50853;46.836;16.820;2024-03-02T05:33:16;17.55;;;12.98;;
64467;SDS011;50853;46.836;16.820;2024-03-02T05:35:43;19.40;;;13.63;;
64467;SDS011;50853;46.836;16.820;2024-03-02T05:38:09;19.00;;;13.68;;
64467;SDS011;50853;46.836;16.820;2024-03-02T05:40:38;18.67;;;13.93;;
64467;SDS011;50853;46.836;16.820;2024-03-02T05:43:04;17.85;;;13.75;;
64467;SDS011;50853;46.836;16.820;2024-03-02T05:45:30;19.73;;;13.93;;
64467;SDS011;50853;46.836;16.820;2024-03-02T05:47:55;18.83;;;13.68;;
64467;SDS011;50853;46.836;16.820;2024-03-02T05:50:21;18.77;;;13.45;;
64467;SDS011;50853;46.836;16.820;2024-03-02T05:52:47;19.40;;;13.65;;
64467;SDS011;50853;46.836;16.820;2024-03-02T05:55:13;17.40;;;12.90;;
64467;SDS011;50853;46.836;16.820;2024-03-02T05:57:38;20.42;;;13.90;;
64467;SDS011;50853;46.836;16.820;2024-03-02T06:00:08;17.30;;;13.32;;
64467;SDS011;50853;46.836;16.820;2024-03-02T06:02:34;19.63;;;13.88;;
64467;SDS011;50853;46.836;16.820;2024-03-02T06:05:00;18.15;;;13.18;;
64467;SDS011;50853;46.836;16.820;2024-03-02T06:07:26;19.05;;;13.00;;
64467;SDS011;50853;46.836;16.820;2024-03-02T06:09:51;18.75;;;13.35;;
64467;SDS011;50853;46.836;16.820;2024-03-02T06:12:18;18.42;;;13.25;;
64467;SDS011;50853;46.836;16.820;2024-03-02T06:14:44;18.97;;;14.00;;
64467;SDS011;50853;46.836;16.820;2024-03-02T06:17:10;19.92;;;14.88;;
64467;SDS011;50853;46.836;16.820;2024-03-02T06:19:35;17.85;;;12.80;;
64467;SDS011;50853;46.836;16.820;2024-03-02T06:22:01;19.52;;;14.38;;
64467;SDS011;50853;46.836;16.820;2024-03-02T06:24:27;18.15;;;13.80;;
64467;SDS011;50853;46.836;16.820;2024-03-02T06:26:53;17.55;;;13.40;;
64467;SDS011;50853;46.836;16.820;2024-03-02T06:29:18;18.85;;;14.10;;
64467;SDS011;50853;46.836;16.820;2024-03-02T06:31:44;18.85;;;13.70;;
64467;SDS011;50853;46.836;16.820;2024-03-02T06:34:10;21.08;;;14.00;;
64467;SDS011;50853;46.836;16.820;2024-03-02T06:36:36;19.92;;;12.73;;
64467;SDS011;50853;46.836;16.820;2024-03-02T06:39:01;19.33;;;14.05;;
64467;SDS011;50853;46.836;16.820;2024-03-02T06:41:27;18.35;;;12.90;;
64467;SDS011;50853;46.836;16.820;2024-03-02T06:43:53;18.50;;;13.55;;
64467;SDS011;50853;46.836;16.820;2024-03-02T06:46:24;19.13;;;13.45;;
64467;SDS011;50853;46.836;16.820;2024-03-02T06:48:51;20.50;;;13.68;;
64467;SDS011;50853;46.836;16.820;2024-03-02T06:51:16;19.90;;;13.93;;
64467;SDS011;50853;46.836;16.820;2024-03-02T06:53:42;19.63;;;13.77;;
64467;SDS011;50853;46.836;16.820;2024-03-02T06:56:08;19.70;;;13.40;;
64467;SDS011;50853;46.836;16.820;2024-03-02T06:58:34;18.73;;;13.15;;
64467;SDS011;50853;46.836;16.820;2024-03-02T07:01:00;18.67;;;13.48;;
64467;SDS011;50853;46.836;16.820;2024-03-02T07:03:26;17.27;;;12.93;;
64467;SDS011;50853;46.836;16.820;2024-03-02T07:05:51;19.10;;;13.68;;
64467;SDS011;50853;46.836;16.820;2024-03-02T07:08:17;19.17;;;13.23;;
64467;SDS011;50853;46.836;16.820;2024-03-02T07:10:43;17.98;;;12.63;;
64467;SDS011;50853;46.836;16.820;2024-03-02T07:13:08;18.80;;;13.68;;
64467;SDS011;50853;46.836;16.820;2024-03-02T07:15:34;21.50;;;14.23;;
64467;SDS011;50853;46.836;16.820;2024-03-02T07:18:18;20.48;;;13.73;;
64467;SDS011;50853;46.836;16.820;2024-03-02T07:20:44;18.95;;;13.60;;
64467;SDS011;50853;46.836;16.820;2024-03-02T07:23:10;20.92;;;14.20;;
64467;SDS011;50853;46.836;16.820;2024-03-02T07:25:36;18.33;;;13.60;;
64467;SDS011;50853;46.836;16.820;2024-03-02T07:28:02;19.90;;;14.48;;
64467;SDS011;50853;46.836;16.820;2024-03-02T07:30:29;19.70;;;14.35;;
64467;SDS011;50853;46.836;16.820;2024-03-02T07:32:55;18.55;;;13.77;;
64467;SDS011;50853;46.836;16.820;2024-03-02T07:35:21;18.33;;;13.30;;
64467;SDS011;50853;46.836;16.820;2024-03-02T07:37:47;18.98;;;12.55;;
64467;SDS011;50853;46.836;16.820;2024-03-02T07:40:13;16.80;;;12.38;;
64467;SDS011;50853;46.836;16.820;2024-03-02T07:42:39;16.85;;;12.73;;
64467;SDS011;50853;46.836;16.820;2024-03-02T07:45:05;18.88;;;13.35;;
64467;SDS011;50853;46.836;16.820;2024-03-02T07:47:36;20.00;;;13.82;;
64467;SDS011;50853;46.836;16.820;2024-03-02T07:50:02;20.80;;;14.13;;
64467;SDS011;50853;46.836;16.820;2024-03-02T07:52:28;18.98;;;13.73;;
64467;SDS011;50853;46.836;16.820;2024-03-02T07:54:54;17.83;;;12.93;;
64467;SDS011;50853;46.836;16.820;2024-03-02T07:57:20;18.58;;;12.80;;
64467;SDS011;50853;46.836;16.820;2024-03-02T07:59:46;21.27;;;14.40;;
64467;SDS011;50853;46.836;16.820;2024-03-02T08:02:12;19.90;;;13.27;;
64467;SDS011;50853;46.836;16.820;2024-03-02T08:04:38;18.33;;;13.38;;
64467;SDS011;50853;46.836;16.820;2024-03-02T08:07:04;19.67;;;13.45;;
64467;SDS011;50853;46.836;16.820;2024-03-02T08:09:30;20.85;;;14.20;;
64467;SDS011;50853;46.836;16.820;2024-03-02T08:11:55;18.92;;;13.55;;
64467;SDS011;50853;46.836;16.820;2024-03-02T08:14:23;18.48;;;13.48;;
64467;SDS011;50853;46.836;16.820;2024-03-02T08:16:49;19.10;;;13.02;;
64467;SDS011;50853;46.836;16.820;2024-03-02T08:19:15;18.48;;;12.70;;
64467;SDS011;50853;46.836;16.820;2024-03-02T08:21:42;17.88;;;12.60;;
64467;SDS011;50853;46.836;16.820;2024-03-02T08:24:09;19.05;;;13.23;;
64467;SDS011;50853;46.836;16.820;2024-03-02T08:26:35;20.45;;;13.13;;
64467;SDS011;50853;46.836;16.820;2024-03-02T08:29:01;17.80;;;13.73;;
64467;SDS011;50853;46.836;16.820;2024-03-02T08:31:29;19.40;;;13.13;;
64467;SDS011;50853;46.836;16.820;2024-03-02T08:33:55;19.73;;;14.20;;
64467;SDS011;50853;46.836;16.820;2024-03-02T08:36:22;19.38;;;13.52;;
64467;SDS011;50853;46.836;16.820;2024-03-02T08:38:51;19.92;;;13.82;;
64467;SDS011;50853;46.836;16.820;2024-03-02T08:41:17;18.33;;;13.27;;
64467;SDS011;50853;46.836;16.820;2024-03-02T08:43:43;18.73;;;13.35;;
64467;SDS011;50853;46.836;16.820;2024-03-02T08:46:09;19.35;;;13.50;;
64467;SDS011;50853;46.836;16.820;2024-03-02T08:48:35;18.17;;;13.13;;
64467;SDS011;50853;46.836;16.820;2024-03-02T08:51:01;19.08;;;13.52;;
64467;SDS011;50853;46.836;16.820;2024-03-02T08:53:30;18.00;;;12.80;;
64467;SDS011;50853;46.836;16.820;2024-03-02T08:55:55;20.35;;;13.95;;
64467;SDS011;50853;46.836;16.820;2024-03-02T08:58:21;18.35;;;12.40;;
64467;SDS011;50853;46.836;16.820;2024-03-02T09:00:47;20.42;;;13.45;;
64467;SDS011;50853;46.836;16.820;2024-03-02T09:03:13;17.40;;;13.18;;
64467;SDS011;50853;46.836;16.820;2024-03-02T09:17:47;18.52;;;13.07;;
64467;SDS011;50853;46.836;16.820;2024-03-02T09:20:12;20.35;;;13.00;;
64467;SDS011;50853;46.836;16.820;2024-03-02T09:22:39;19.70;;;14.10;;
64467;SDS011;50853;46.836;16.820;2024-03-02T09:25:04;18.85;;;12.70;;
64467;SDS011;50853;46.836;16.820;2024-03-02T09:27:37;18.75;;;12.10;;
64467;SDS011;50853;46.836;16.820;2024-03-02T09:30:04;17.65;;;13.30;;
64467;SDS011;50853;46.836;16.820;2024-03-02T09:32:35;18.35;;;12.80;;
64467;SDS011;50853;46.836;16.820;2024-03-02T09:35:01;20.03;;;12.83;;
64467;SDS011;50853;46.836;16.820;2024-03-02T09:37:27;16.98;;;12.38;;
64467;SDS011;50853;46.836;16.820;2024-03-02T09:39:54;15.85;;;12.23;;
64467;SDS011;50853;46.836;16.820;2024-03-02T09:42:20;18.52;;;12.63;;
64467;SDS011;50853;46.836;16.820;2024-03-02T09:44:46;16.33;;;12.43;;
64467;SDS011;50853;46.836;16.820;2024-03-02T09:47:13;18.10;;;12.90;;
64467;SDS011;50853;46.836;16.820;2024-03-02T09:49:39;18.25;;;12.07;;
64467;SDS011;50853;46.836;16.820;2024-03-02T09:52:05;15.70;;;11.67;;
64467;SDS011;50853;46.836;16.820;2024-03-02T09:54:32;17.88;;;12.07;;
64467;SDS011;50853;46.836;16.820;2024-03-02T09:56:58;15.85;;;12.32;;
64467;SDS011;50853;46.836;16.820;2024-03-02T09:59:27;16.70;;;12.57;;
64467;SDS011;50853;46.836;16.820;2024-03-02T10:02:06;19.00;;;13.00;;
64467;SDS011;50853;46.836;16.820;2024-03-02T10:04:33;17.42;;;12.40;;
64467;SDS011;50853;46.836;16.820;2024-03-02T10:07:13;22.55;;;12.77;;
64467;SDS011;50853;46.836;16.820;2024-03-02T10:09:41;17.25;;;12.77;;
64467;SDS011;50853;46.836;16.820;2024-03-02T10:12:08;17.33;;;12.35;;
64467;SDS011;50853;46.836;16.820;2024-03-02T10:14:36;17.63;;;12.35;;
64467;SDS011;50853;46.836;16.820;2024-03-02T10:17:09;17.83;;;13.15;;
64467;SDS011;50853;46.836;16.820;2024-03-02T10:19:37;17.00;;;12.10;;
64467;SDS011;50853;46.836;16.820;2024-03-02T10:22:04;16.70;;;13.07;;
64467;SDS011;50853;46.836;16.820;2024-03-02T10:24:35;17.88;;;12.30;;
64467;SDS011;50853;46.836;16.820;2024-03-02T10:27:02;17.77;;;12.68;;
64467;SDS011;50853;46.836;16.820;2024-03-02T10:29:42;18.75;;;13.82;;
64467;SDS011;50853;46.836;16.820;2024-03-02T10:32:10;16.75;;;12.20;;
64467;SDS011;50853;46.836;16.820;2024-03-02T10:34:37;15.93;;;11.73;;
64467;SDS011;50853;46.836;16.820;2024-03-02T10:37:05;19.83;;;13.23;;
64467;SDS011;50853;46.836;16.820;2024-03-02T10:39:34;19.58;;;12.70;;
64467;SDS011;50853;46.836;16.820;2024-03-02T10:42:01;27.05;;;15.63;;
64467;SDS011;50853;46.836;16.820;2024-03-02T10:44:28;29.95;;;18.75;;
64467;SDS011;50853;46.836;16.820;2024-03-02T10:46:56;33.45;;;16.83;;
64467;SDS011;50853;46.836;16.820;2024-03-02T10:49:25;29.45;;;17.05;;
64467;SDS011;50853;46.836;16.820;2024-03-02T10:51:52;29.95;;;15.65;;
64467;SDS011;50853;46.836;16.820;2024-03-02T10:54:18;37.58;;;17.30;;
64467;SDS011;50853;46.836;16.820;2024-03-02T10:56:51;35.50;;;16.73;;
64467;SDS011;50853;46.836;16.820;2024-03-02T11:01:48;24.40;;;11.68;;
64467;SDS011;50853;46.836;16.820;2024-03-02T11:04:15;29.17;;;13.98;;
64467;SDS011;50853;46.836;16.820;2024-03-02T11:06:45;23.52;;;12.48;;
64467;SDS011;50853;46.836;16.820;2024-03-02T11:09:21;37.38;;;14.25;;
64467;SDS011;50853;46.836;16.820;2024-03-02T11:12:09;33.25;;;15.32;;
64467;SDS011;50853;46.836;16.820;2024-03-02T11:14:37;34.70;;;13.90;;
64467;SDS011;50853;46.836;16.820;2024-03-02T11:17:08;42.10;;;16.25;;
64467;SDS011;50853;46.836;16.820;2024-03-02T11:22:03;45.70;;;16.15;;
64467;SDS011;50853;46.836;16.820;2024-03-02T11:24:30;54.00;;;17.48;;
64467;SDS011;50853;46.836;16.820;2024-03-02T11:27:00;37.80;;;17.20;;
64467;SDS011;50853;46.836;16.820;2024-03-02T11:32:02;58.25;;;23.80;;
64467;SDS011;50853;46.836;16.820;2024-03-02T11:34:32;70.10;;;24.85;;
64467;SDS011;50853;46.836;16.820;2024-03-02T11:37:03;62.78;;;25.33;;
64467;SDS011;50853;46.836;16.820;2024-03-02T11:39:29;78.93;;;24.75;;
64467;SDS011;50853;46.836;16.820;2024-03-02T11:41:56;96.28;;;27.95;;
64467;SDS011;50853;46.836;16.820;2024-03-02T11:46:58;72.85;;;27.17;;
64467;SDS011;50853;46.836;16.820;2024-03-02T11:49:37;80.00;;;27.80;;
64467;SDS011;50853;46.836;16.820;2024-03-02T11:52:09;83.00;;;25.38;;
64467;SDS011;50853;46.836;16.820;2024-03-02T11:54:37;67.88;;;25.00;;
64467;SDS011;50853;46.836;16.820;2024-03-02T11:57:11;65.32;;;23.70;;
64467;SDS011;50853;46.836;16.820;2024-03-02T11:59:40;82.40;;;26.60;;
64467;SDS011;50853;46.836;16.820;2024-03-02T12:02:05;55.72;;;27.40;;
64467;SDS011;50853;46.836;16.820;2024-03-02T12:04:31;65.28;;;27.45;;
64467;SDS011;50853;46.836;16.820;2024-03-02T12:06:59;68.70;;;26.53;;
64467;SDS011;50853;46.836;16.820;2024-03-02T12:12:09;58.13;;;25.52;;
64467;SDS011;50853;46.836;16.820;2024-03-02T12:14:37;49.58;;;25.42;;
64467;SDS011;50853;46.836;16.820;2024-03-02T12:17:04;53.70;;;25.27;;
64467;SDS011;50853;46.836;16.820;2024-03-02T12:19:31;55.03;;;25.05;;
64467;SDS011;50853;46.836;16.820;2024-03-02T12:21:57;45.42;;;25.63;;
64467;SDS011;50853;46.836;16.820;2024-03-02T12:24:24;45.20;;;24.88;;
64467;SDS011;50853;46.836;16.820;2024-03-02T12:26:52;42.20;;;25.63;;
64467;SDS011;50853;46.836;16.820;2024-03-02T12:29:19;47.10;;;26.53;;
64467;SDS011;50853;46.836;16.820;2024-03-02T12:31:47;43.28;;;25.73;;
64467;SDS011;50853;46.836;16.820;2024-03-02T12:34:14;45.88;;;26.50;;
64467;SDS011;50853;46.836;16.820;2024-03-02T12:39:10;64.20;;;23.77;;
64467;SDS011;50853;46.836;16.820;2024-03-02T12:41:36;50.53;;;21.92;;
64467;SDS011;50853;46.836;16.820;2024-03-02T12:44:03;61.90;;;23.83;;
64467;SDS011;50853;46.836;16.820;2024-03-02T12:46:29;73.83;;;25.07;;
64467;SDS011;50853;46.836;16.820;2024-03-02T12:48:56;68.13;;;25.45;;
64467;SDS011;50853;46.836;16.820;2024-03-02T12:51:21;48.60;;;23.92;;
64467;SDS011;50853;46.836;16.820;2024-03-02T12:53:59;81.32;;;27.55;;
64467;SDS011;50853;46.836;16.820;2024-03-02T12:56:25;84.45;;;29.05;;
64467;SDS011;50853;46.836;16.820;2024-03-02T12:58:55;81.88;;;28.83;;
64467;SDS011;50853;46.836;16.820;2024-03-02T13:01:21;78.53;;;28.55;;
64467;SDS011;50853;46.836;16.820;2024-03-02T13:03:50;67.22;;;27.58;;
64467;SDS011;50853;46.836;16.820;2024-03-02T13:06:17;70.13;;;27.27;;
64467;SDS011;50853;46.836;16.820;2024-03-02T13:08:44;57.72;;;26.00;;
64467;SDS011;50853;46.836;16.820;2024-03-02T13:11:10;66.60;;;25.70;;
64467;SDS011;50853;46.836;16.820;2024-03-02T13:13:36;59.13;;;24.23;;
64467;SDS011;50853;46.836;16.820;2024-03-02T13:16:04;45.88;;;24.98;;
64467;SDS011;50853;46.836;16.820;2024-03-02T13:18:36;49.08;;;25.95;;
64467;SDS011;50853;46.836;16.820;2024-03-02T13:21:03;57.88;;;24.95;;
64467;SDS011;50853;46.836;16.820;2024-03-02T13:23:29;50.08;;;26.17;;
64467;SDS011;50853;46.836;16.820;2024-03-02T13:25:58;75.13;;;24.15;;
64467;SDS011;50853;46.836;16.820;2024-03-02T13:28:24;48.17;;;25.10;;
64467;SDS011;50853;46.836;16.820;2024-03-02T13:30:50;50.37;;;23.67;;
64467;SDS011;50853;46.836;16.820;2024-03-02T13:33:16;47.45;;;23.45;;
64467;SDS011;50853;46.836;16.820;2024-03-02T13:35:50;129.48;;;29.40;;
64467;SDS011;50853;46.836;16.820;2024-03-02T13:38:20;103.68;;;29.23;;
64467;SDS011;50853;46.836;16.820;2024-03-02T13:40:46;57.47;;;24.25;;
64467;SDS011;50853;46.836;16.820;2024-03-02T13:43:16;117.88;;;28.33;;
64467;SDS011;50853;46.836;16.820;2024-03-02T13:48:09;65.53;;;23.35;;
64467;SDS011;50853;46.836;16.820;2024-03-02T13:50:34;69.68;;;25.45;;
64467;SDS011;50853;46.836;16.820;2024-03-02T13:53:00;82.38;;;27.05;;
64467;SDS011;50853;46.836;16.820;2024-03-02T13:55:26;74.15;;;25.70;;
64467;SDS011;50853;46.836;16.820;2024-03-02T13:57:52;82.57;;;26.77;;
64467;SDS011;50853;46.836;16.820;2024-03-02T14:00:18;56.17;;;24.42;;
64467;SDS011;50853;46.836;16.820;2024-03-02T14:02:45;61.22;;;25.13;;
64467;SDS011;50853;46.836;16.820;2024-03-02T14:05:11;66.72;;;24.58;;
64467;SDS011;50853;46.836;16.820;2024-03-02T14:07:37;60.10;;;25.27;;
64467;SDS011;50853;46.836;16.820;2024-03-02T14:10:03;63.77;;;24.70;;
64467;SDS011;50853;46.836;16.820;2024-03-02T14:12:30;60.88;;;25.33;;
64467;SDS011;50853;46.836;16.820;2024-03-02T14:14:55;61.25;;;23.60;;
64467;SDS011;50853;46.836;16.820;2024-03-02T14:17:24;63.17;;;24.02;;
64467;SDS011;50853;46.836;16.820;2024-03-02T14:19:50;54.40;;;24.33;;
64467;SDS011;50853;46.836;16.820;2024-03-02T14:22:18;49.75;;;23.23;;
64467;SDS011;50853;46.836;16.820;2024-03-02T14:24:47;63.53;;;24.85;;
64467;SDS011;50853;46.836;16.820;2024-03-02T14:29:40;54.50;;;22.67;;
64467;SDS011;50853;46.836;16.820;2024-03-02T14:32:07;48.88;;;23.17;;
64467;SDS011;50853;46.836;16.820;2024-03-02T14:34:33;52.20;;;22.63;;
64467;SDS011;50853;46.836;16.820;2024-03-02T14:36:59;47.47;;;23.30;;
64467;SDS011;50853;46.836;16.820;2024-03-02T14:39:26;57.77;;;23.10;;
64467;SDS011;50853;46.836;16.820;2024-03-02T14:41:52;44.72;;;21.67;;
64467;SDS011;50853;46.836;16.820;2024-03-02T14:44:18;48.95;;;22.63;;
64467;SDS011;50853;46.836;16.820;2024-03-02T14:46:46;46.13;;;21.85;;